<?xml version="1.0" encoding="UTF-8"?>
<gpx xmlns="http://www.topografix.com/GPX/1/1" xmlns:xsi="http://www.w3.org/2001/XMLSchema-instance" version="1.1" xsi:schemaLocation="http://www.topografix.com/GPX/1/1 http://www.topografix.com/GPX/1/1/gpx.xsd">
  <metadata>
    <name>Key West Triathlon 2022</name>
  </metadata>
  <trk>
    <name>Key West Triathlon 2022</name>
    <trkseg>
      <trkpt lat="24.547635" lon="-81.787618">
        <ele>1.000002</ele>
        <time>2023-12-10T07:57:00.000Z</time>
      </trkpt>
      <trkpt lat="24.547602" lon="-81.787371">
        <ele>1.000003</ele>
        <time>2023-12-10T07:57:03.000Z</time>
      </trkpt>
      <trkpt lat="24.5476" lon="-81.787309">
        <ele>1.000003</ele>
        <time>2023-12-10T07:57:04.000Z</time>
      </trkpt>
      <trkpt lat="24.547538" lon="-81.786886">
        <ele>0.999999</ele>
        <time>2023-12-10T07:57:08.000Z</time>
      </trkpt>
      <trkpt lat="24.547512" lon="-81.786698">
        <ele>1.000006</ele>
        <time>2023-12-10T07:57:10.000Z</time>
      </trkpt>
      <trkpt lat="24.54749" lon="-81.786251">
        <ele>0.984794</ele>
        <time>2023-12-10T07:57:15.000Z</time>
      </trkpt>
      <trkpt lat="24.54754" lon="-81.78588">
        <ele>0.970576</ele>
        <time>2023-12-10T07:57:19.000Z</time>
      </trkpt>
      <trkpt lat="24.547787" lon="-81.785032">
        <ele>0.936442</ele>
        <time>2023-12-10T07:57:28.000Z</time>
      </trkpt>
      <trkpt lat="24.547838" lon="-81.784965">
        <ele>0.932695</ele>
        <time>2023-12-10T07:57:29.000Z</time>
      </trkpt>
      <trkpt lat="24.547888" lon="-81.784865">
        <ele>0.928651</ele>
        <time>2023-12-10T07:57:30.000Z</time>
      </trkpt>
      <trkpt lat="24.547975" lon="-81.784717">
        <ele>0.920123</ele>
        <time>2023-12-10T07:57:32.000Z</time>
      </trkpt>
      <trkpt lat="24.548645" lon="-81.783671">
        <ele>0.841812</ele>
        <time>2023-12-10T07:57:45.000Z</time>
      </trkpt>
      <trkpt lat="24.548758" lon="-81.783488">
        <ele>0.828434</ele>
        <time>2023-12-10T07:57:47.000Z</time>
      </trkpt>
      <trkpt lat="24.549158" lon="-81.782887">
        <ele>0.810224</ele>
        <time>2023-12-10T07:57:55.000Z</time>
      </trkpt>
      <trkpt lat="24.549616" lon="-81.782142">
        <ele>0.833338</ele>
        <time>2023-12-10T07:58:04.000Z</time>
      </trkpt>
      <trkpt lat="24.549796" lon="-81.781866">
        <ele>0.841453</ele>
        <time>2023-12-10T07:58:07.000Z</time>
      </trkpt>
      <trkpt lat="24.550365" lon="-81.780953">
        <ele>0.89552</ele>
        <time>2023-12-10T07:58:18.000Z</time>
      </trkpt>
      <trkpt lat="24.550443" lon="-81.780808">
        <ele>0.905572</ele>
        <time>2023-12-10T07:58:20.000Z</time>
      </trkpt>
      <trkpt lat="24.550575" lon="-81.780617">
        <ele>0.920888</ele>
        <time>2023-12-10T07:58:22.000Z</time>
      </trkpt>
      <trkpt lat="24.550987" lon="-81.779946">
        <ele>0.970573</ele>
        <time>2023-12-10T07:58:30.000Z</time>
      </trkpt>
      <trkpt lat="24.55162" lon="-81.778948">
        <ele>0.989675</ele>
        <time>2023-12-10T07:58:42.000Z</time>
      </trkpt>
      <trkpt lat="24.551636" lon="-81.778909">
        <ele>0.99024</ele>
        <time>2023-12-10T07:58:42.000Z</time>
      </trkpt>
      <trkpt lat="24.551966" lon="-81.778372">
        <ele>0.998234</ele>
        <time>2023-12-10T07:58:49.000Z</time>
      </trkpt>
      <trkpt lat="24.552269" lon="-81.777916">
        <ele>0.990088</ele>
        <time>2023-12-10T07:58:55.000Z</time>
      </trkpt>
      <trkpt lat="24.552321" lon="-81.777833">
        <ele>0.987499</ele>
        <time>2023-12-10T07:58:56.000Z</time>
      </trkpt>
      <trkpt lat="24.551873" lon="-81.777478">
        <ele>0.973312</ele>
        <time>2023-12-10T07:59:02.000Z</time>
      </trkpt>
      <trkpt lat="24.550502" lon="-81.776463">
        <ele>0.855685</ele>
        <time>2023-12-10T07:59:20.000Z</time>
      </trkpt>
      <trkpt lat="24.550449" lon="-81.776293">
        <ele>0.838526</ele>
        <time>2023-12-10T07:59:22.000Z</time>
      </trkpt>
      <trkpt lat="24.550445" lon="-81.776171">
        <ele>0.826863</ele>
        <time>2023-12-10T07:59:23.000Z</time>
      </trkpt>
      <trkpt lat="24.550875" lon="-81.774872">
        <ele>0.675123</ele>
        <time>2023-12-10T07:59:37.000Z</time>
      </trkpt>
      <trkpt lat="24.551167" lon="-81.773931">
        <ele>0.55971</ele>
        <time>2023-12-10T07:59:47.000Z</time>
      </trkpt>
      <trkpt lat="24.551459" lon="-81.77269">
        <ele>0.438591</ele>
        <time>2023-12-10T08:00:00.000Z</time>
      </trkpt>
      <trkpt lat="24.55155" lon="-81.772276">
        <ele>0.401797</ele>
        <time>2023-12-10T08:00:04.000Z</time>
      </trkpt>
      <trkpt lat="24.551743" lon="-81.771488">
        <ele>0.346103</ele>
        <time>2023-12-10T08:00:12.000Z</time>
      </trkpt>
      <trkpt lat="24.55209" lon="-81.770024">
        <ele>0.305993</ele>
        <time>2023-12-10T08:00:27.000Z</time>
      </trkpt>
      <trkpt lat="24.552117" lon="-81.769905">
        <ele>0.302502</ele>
        <time>2023-12-10T08:00:28.000Z</time>
      </trkpt>
      <trkpt lat="24.552263" lon="-81.7691">
        <ele>0.295298</ele>
        <time>2023-12-10T08:00:36.000Z</time>
      </trkpt>
      <trkpt lat="24.552499" lon="-81.767467">
        <ele>0.251664</ele>
        <time>2023-12-10T08:00:53.000Z</time>
      </trkpt>
      <trkpt lat="24.55264" lon="-81.766099">
        <ele>0.128115</ele>
        <time>2023-12-10T08:01:07.000Z</time>
      </trkpt>
      <trkpt lat="24.552642" lon="-81.765412">
        <ele>0.089303</ele>
        <time>2023-12-10T08:01:14.000Z</time>
      </trkpt>
      <trkpt lat="24.552626" lon="-81.764906">
        <ele>0.067054</ele>
        <time>2023-12-10T08:01:19.000Z</time>
      </trkpt>
      <trkpt lat="24.552614" lon="-81.764602">
        <ele>0.05361</ele>
        <time>2023-12-10T08:01:22.000Z</time>
      </trkpt>
      <trkpt lat="24.552414" lon="-81.758923">
        <ele>0.155314</ele>
        <time>2023-12-10T08:02:19.000Z</time>
      </trkpt>
      <trkpt lat="24.552195" lon="-81.757153">
        <ele>0.108689</ele>
        <time>2023-12-10T08:02:37.000Z</time>
      </trkpt>
      <trkpt lat="24.552131" lon="-81.756736">
        <ele>0.089677</ele>
        <time>2023-12-10T08:02:41.000Z</time>
      </trkpt>
      <trkpt lat="24.55206" lon="-81.756275">
        <ele>0.067899</ele>
        <time>2023-12-10T08:02:46.000Z</time>
      </trkpt>
      <trkpt lat="24.551961" lon="-81.755531">
        <ele>0.064906</ele>
        <time>2023-12-10T08:02:54.000Z</time>
      </trkpt>
      <trkpt lat="24.551887" lon="-81.754958">
        <ele>0.072468</ele>
        <time>2023-12-10T08:03:00.000Z</time>
      </trkpt>
      <trkpt lat="24.551918" lon="-81.754553">
        <ele>0.077703</ele>
        <time>2023-12-10T08:03:04.000Z</time>
      </trkpt>
      <trkpt lat="24.552199" lon="-81.753528">
        <ele>0.088852</ele>
        <time>2023-12-10T08:03:15.000Z</time>
      </trkpt>
      <trkpt lat="24.552251" lon="-81.753367">
        <ele>0.090145</ele>
        <time>2023-12-10T08:03:17.000Z</time>
      </trkpt>
      <trkpt lat="24.552266" lon="-81.753255">
        <ele>0.091098</ele>
        <time>2023-12-10T08:03:18.000Z</time>
      </trkpt>
      <trkpt lat="24.552291" lon="-81.753185">
        <ele>0.091772</ele>
        <time>2023-12-10T08:03:19.000Z</time>
      </trkpt>
      <trkpt lat="24.552346" lon="-81.752998">
        <ele>0.093278</ele>
        <time>2023-12-10T08:03:21.000Z</time>
      </trkpt>
      <trkpt lat="24.552715" lon="-81.751946">
        <ele>0.108623</ele>
        <time>2023-12-10T08:03:32.000Z</time>
      </trkpt>
      <trkpt lat="24.553145" lon="-81.751034">
        <ele>0.13694</ele>
        <time>2023-12-10T08:03:42.000Z</time>
      </trkpt>
      <trkpt lat="24.553697" lon="-81.750118">
        <ele>0.165085</ele>
        <time>2023-12-10T08:03:53.000Z</time>
      </trkpt>
      <trkpt lat="24.554219" lon="-81.749419">
        <ele>0.186013</ele>
        <time>2023-12-10T08:04:02.000Z</time>
      </trkpt>
      <trkpt lat="24.55462" lon="-81.74903">
        <ele>0.199407</ele>
        <time>2023-12-10T08:04:08.000Z</time>
      </trkpt>
      <trkpt lat="24.554872" lon="-81.748807">
        <ele>0.20684</ele>
        <time>2023-12-10T08:04:12.000Z</time>
      </trkpt>
      <trkpt lat="24.555201" lon="-81.748483">
        <ele>0.216534</ele>
        <time>2023-12-10T08:04:17.000Z</time>
      </trkpt>
      <trkpt lat="24.55562" lon="-81.748238">
        <ele>0.227364</ele>
        <time>2023-12-10T08:04:22.000Z</time>
      </trkpt>
      <trkpt lat="24.556018" lon="-81.748155">
        <ele>0.236371</ele>
        <time>2023-12-10T08:04:27.000Z</time>
      </trkpt>
      <trkpt lat="24.556785" lon="-81.74824">
        <ele>0.28698</ele>
        <time>2023-12-10T08:04:36.000Z</time>
      </trkpt>
      <trkpt lat="24.559693" lon="-81.748695">
        <ele>0.501793</ele>
        <time>2023-12-10T08:05:09.000Z</time>
      </trkpt>
      <trkpt lat="24.560986" lon="-81.749071">
        <ele>0.606284</ele>
        <time>2023-12-10T08:05:24.000Z</time>
      </trkpt>
      <trkpt lat="24.562041" lon="-81.749501">
        <ele>0.712543</ele>
        <time>2023-12-10T08:05:37.000Z</time>
      </trkpt>
      <trkpt lat="24.563648" lon="-81.750116">
        <ele>0.882978</ele>
        <time>2023-12-10T08:05:56.000Z</time>
      </trkpt>
      <trkpt lat="24.564476" lon="-81.750426">
        <ele>0.957653</ele>
        <time>2023-12-10T08:06:06.000Z</time>
      </trkpt>
      <trkpt lat="24.565001" lon="-81.750635">
        <ele>0.993218</ele>
        <time>2023-12-10T08:06:12.000Z</time>
      </trkpt>
      <trkpt lat="24.565267" lon="-81.75074">
        <ele>0.994269</ele>
        <time>2023-12-10T08:06:15.000Z</time>
      </trkpt>
      <trkpt lat="24.565877" lon="-81.750967">
        <ele>0.996637</ele>
        <time>2023-12-10T08:06:22.000Z</time>
      </trkpt>
      <trkpt lat="24.565885" lon="-81.750976">
        <ele>0.996654</ele>
        <time>2023-12-10T08:06:22.000Z</time>
      </trkpt>
      <trkpt lat="24.565882" lon="-81.75097">
        <ele>0.996645</ele>
        <time>2023-12-10T08:06:22.000Z</time>
      </trkpt>
      <trkpt lat="24.565267" lon="-81.750729">
        <ele>0.999028</ele>
        <time>2023-12-10T08:06:29.000Z</time>
      </trkpt>
      <trkpt lat="24.564998" lon="-81.750625">
        <ele>0.98619</ele>
        <time>2023-12-10T08:06:32.000Z</time>
      </trkpt>
      <trkpt lat="24.564481" lon="-81.750433">
        <ele>0.949601</ele>
        <time>2023-12-10T08:06:38.000Z</time>
      </trkpt>
      <trkpt lat="24.563636" lon="-81.750117">
        <ele>0.890999</ele>
        <time>2023-12-10T08:06:48.000Z</time>
      </trkpt>
      <trkpt lat="24.562049" lon="-81.749502">
        <ele>0.709334</ele>
        <time>2023-12-10T08:07:07.000Z</time>
      </trkpt>
      <trkpt lat="24.560983" lon="-81.749074">
        <ele>0.607956</ele>
        <time>2023-12-10T08:07:20.000Z</time>
      </trkpt>
      <trkpt lat="24.559696" lon="-81.748704">
        <ele>0.50263</ele>
        <time>2023-12-10T08:07:35.000Z</time>
      </trkpt>
      <trkpt lat="24.556788" lon="-81.748234">
        <ele>0.284996</ele>
        <time>2023-12-10T08:08:08.000Z</time>
      </trkpt>
      <trkpt lat="24.556017" lon="-81.748163">
        <ele>0.246403</ele>
        <time>2023-12-10T08:08:17.000Z</time>
      </trkpt>
      <trkpt lat="24.555622" lon="-81.748242">
        <ele>0.231861</ele>
        <time>2023-12-10T08:08:21.000Z</time>
      </trkpt>
      <trkpt lat="24.555201" lon="-81.748497">
        <ele>0.214436</ele>
        <time>2023-12-10T08:08:26.000Z</time>
      </trkpt>
      <trkpt lat="24.554871" lon="-81.748791">
        <ele>0.199494</ele>
        <time>2023-12-10T08:08:31.000Z</time>
      </trkpt>
      <trkpt lat="24.554621" lon="-81.749032">
        <ele>0.194645</ele>
        <time>2023-12-10T08:08:35.000Z</time>
      </trkpt>
      <trkpt lat="24.554229" lon="-81.749416">
        <ele>0.186767</ele>
        <time>2023-12-10T08:08:41.000Z</time>
      </trkpt>
      <trkpt lat="24.553682" lon="-81.75011">
        <ele>0.174462</ele>
        <time>2023-12-10T08:08:50.000Z</time>
      </trkpt>
      <trkpt lat="24.553132" lon="-81.751035">
        <ele>0.135892</ele>
        <time>2023-12-10T08:09:01.000Z</time>
      </trkpt>
      <trkpt lat="24.552709" lon="-81.751941">
        <ele>0.100016</ele>
        <time>2023-12-10T08:09:11.000Z</time>
      </trkpt>
      <trkpt lat="24.552359" lon="-81.753015">
        <ele>0.100008</ele>
        <time>2023-12-10T08:09:23.000Z</time>
      </trkpt>
      <trkpt lat="24.55229" lon="-81.753174">
        <ele>0.100007</ele>
        <time>2023-12-10T08:09:25.000Z</time>
      </trkpt>
      <trkpt lat="24.552281" lon="-81.753253">
        <ele>0.100005</ele>
        <time>2023-12-10T08:09:26.000Z</time>
      </trkpt>
      <trkpt lat="24.552233" lon="-81.753375">
        <ele>0.100003</ele>
        <time>2023-12-10T08:09:27.000Z</time>
      </trkpt>
      <trkpt lat="24.552196" lon="-81.75353">
        <ele>0.099999</ele>
        <time>2023-12-10T08:09:29.000Z</time>
      </trkpt>
      <trkpt lat="24.551942" lon="-81.75442">
        <ele>0.088126</ele>
        <time>2023-12-10T08:09:38.000Z</time>
      </trkpt>
      <trkpt lat="24.551917" lon="-81.754556">
        <ele>0.085753</ele>
        <time>2023-12-10T08:09:39.000Z</time>
      </trkpt>
      <trkpt lat="24.5519" lon="-81.754637">
        <ele>0.084307</ele>
        <time>2023-12-10T08:09:40.000Z</time>
      </trkpt>
      <trkpt lat="24.551898" lon="-81.754952">
        <ele>0.078985</ele>
        <time>2023-12-10T08:09:43.000Z</time>
      </trkpt>
      <trkpt lat="24.551948" lon="-81.755527">
        <ele>0.069219</ele>
        <time>2023-12-10T08:09:49.000Z</time>
      </trkpt>
      <trkpt lat="24.552057" lon="-81.756273">
        <ele>0.085677</ele>
        <time>2023-12-10T08:09:57.000Z</time>
      </trkpt>
      <trkpt lat="24.55213" lon="-81.756738">
        <ele>0.101227</ele>
        <time>2023-12-10T08:10:02.000Z</time>
      </trkpt>
      <trkpt lat="24.552206" lon="-81.757146">
        <ele>0.114789</ele>
        <time>2023-12-10T08:10:06.000Z</time>
      </trkpt>
      <trkpt lat="24.552409" lon="-81.758925">
        <ele>0.159281</ele>
        <time>2023-12-10T08:10:24.000Z</time>
      </trkpt>
      <trkpt lat="24.552607" lon="-81.764591">
        <ele>0.056989</ele>
        <time>2023-12-10T08:11:21.000Z</time>
      </trkpt>
      <trkpt lat="24.552623" lon="-81.764915">
        <ele>0.063022</ele>
        <time>2023-12-10T08:11:24.000Z</time>
      </trkpt>
      <trkpt lat="24.552647" lon="-81.765418">
        <ele>0.073039</ele>
        <time>2023-12-10T08:11:29.000Z</time>
      </trkpt>
      <trkpt lat="24.552632" lon="-81.766099">
        <ele>0.130155</ele>
        <time>2023-12-10T08:11:36.000Z</time>
      </trkpt>
      <trkpt lat="24.552512" lon="-81.767481">
        <ele>0.263536</ele>
        <time>2023-12-10T08:11:50.000Z</time>
      </trkpt>
      <trkpt lat="24.552255" lon="-81.769097">
        <ele>0.293868</ele>
        <time>2023-12-10T08:12:07.000Z</time>
      </trkpt>
      <trkpt lat="24.552102" lon="-81.769907">
        <ele>0.305515</ele>
        <time>2023-12-10T08:12:15.000Z</time>
      </trkpt>
      <trkpt lat="24.552085" lon="-81.770037">
        <ele>0.307057</ele>
        <time>2023-12-10T08:12:16.000Z</time>
      </trkpt>
      <trkpt lat="24.551746" lon="-81.771481">
        <ele>0.334152</ele>
        <time>2023-12-10T08:12:31.000Z</time>
      </trkpt>
      <trkpt lat="24.551563" lon="-81.77227">
        <ele>0.405558</ele>
        <time>2023-12-10T08:12:39.000Z</time>
      </trkpt>
      <trkpt lat="24.551451" lon="-81.772686">
        <ele>0.44275</ele>
        <time>2023-12-10T08:12:43.000Z</time>
      </trkpt>
      <trkpt lat="24.55116" lon="-81.773932">
        <ele>0.568754</ele>
        <time>2023-12-10T08:12:56.000Z</time>
      </trkpt>
      <trkpt lat="24.550874" lon="-81.77486">
        <ele>0.673735</ele>
        <time>2023-12-10T08:13:06.000Z</time>
      </trkpt>
      <trkpt lat="24.55045" lon="-81.776172">
        <ele>0.827798</ele>
        <time>2023-12-10T08:13:20.000Z</time>
      </trkpt>
      <trkpt lat="24.550442" lon="-81.776301">
        <ele>0.840835</ele>
        <time>2023-12-10T08:13:21.000Z</time>
      </trkpt>
      <trkpt lat="24.550512" lon="-81.776454">
        <ele>0.860014</ele>
        <time>2023-12-10T08:13:23.000Z</time>
      </trkpt>
      <trkpt lat="24.551875" lon="-81.777484">
        <ele>0.971603</ele>
        <time>2023-12-10T08:13:41.000Z</time>
      </trkpt>
      <trkpt lat="24.55233" lon="-81.777829">
        <ele>0.993414</ele>
        <time>2023-12-10T08:13:47.000Z</time>
      </trkpt>
      <trkpt lat="24.552271" lon="-81.777913">
        <ele>0.997396</ele>
        <time>2023-12-10T08:13:48.000Z</time>
      </trkpt>
      <trkpt lat="24.551965" lon="-81.778385">
        <ele>0.997129</ele>
        <time>2023-12-10T08:13:54.000Z</time>
      </trkpt>
      <trkpt lat="24.551647" lon="-81.778917">
        <ele>0.994342</ele>
        <time>2023-12-10T08:14:00.000Z</time>
      </trkpt>
      <trkpt lat="24.551612" lon="-81.778944">
        <ele>0.994141</ele>
        <time>2023-12-10T08:14:00.000Z</time>
      </trkpt>
      <trkpt lat="24.550992" lon="-81.779964">
        <ele>0.96439</ele>
        <time>2023-12-10T08:14:12.000Z</time>
      </trkpt>
      <trkpt lat="24.550574" lon="-81.780604">
        <ele>0.917458</ele>
        <time>2023-12-10T08:14:20.000Z</time>
      </trkpt>
      <trkpt lat="24.550453" lon="-81.780816">
        <ele>0.902993</ele>
        <time>2023-12-10T08:14:23.000Z</time>
      </trkpt>
      <trkpt lat="24.550365" lon="-81.780952">
        <ele>0.893502</ele>
        <time>2023-12-10T08:14:25.000Z</time>
      </trkpt>
      <trkpt lat="24.549783" lon="-81.781877">
        <ele>0.844319</ele>
        <time>2023-12-10T08:14:36.000Z</time>
      </trkpt>
      <trkpt lat="24.549621" lon="-81.782132">
        <ele>0.832225</ele>
        <time>2023-12-10T08:14:39.000Z</time>
      </trkpt>
      <trkpt lat="24.549146" lon="-81.782887">
        <ele>0.802666</ele>
        <time>2023-12-10T08:14:48.000Z</time>
      </trkpt>
      <trkpt lat="24.54877" lon="-81.783505">
        <ele>0.835629</ele>
        <time>2023-12-10T08:14:56.000Z</time>
      </trkpt>
      <trkpt lat="24.548646" lon="-81.783677">
        <ele>0.845401</ele>
        <time>2023-12-10T08:14:58.000Z</time>
      </trkpt>
      <trkpt lat="24.547991" lon="-81.784714">
        <ele>0.906191</ele>
        <time>2023-12-10T08:15:11.000Z</time>
      </trkpt>
      <trkpt lat="24.547894" lon="-81.784875">
        <ele>0.916707</ele>
        <time>2023-12-10T08:15:13.000Z</time>
      </trkpt>
      <trkpt lat="24.547826" lon="-81.784952">
        <ele>0.922602</ele>
        <time>2023-12-10T08:15:14.000Z</time>
      </trkpt>
      <trkpt lat="24.547778" lon="-81.785038">
        <ele>0.928087</ele>
        <time>2023-12-10T08:15:15.000Z</time>
      </trkpt>
      <trkpt lat="24.547554" lon="-81.785879">
        <ele>0.977904</ele>
        <time>2023-12-10T08:15:24.000Z</time>
      </trkpt>
      <trkpt lat="24.547498" lon="-81.786247">
        <ele>0.998675</ele>
        <time>2023-12-10T08:15:28.000Z</time>
      </trkpt>
      <trkpt lat="24.547517" lon="-81.786682">
        <ele>1.000003</ele>
        <time>2023-12-10T08:15:32.000Z</time>
      </trkpt>
      <trkpt lat="24.547549" lon="-81.786878">
        <ele>0.999995</ele>
        <time>2023-12-10T08:15:34.000Z</time>
      </trkpt>
      <trkpt lat="24.547674" lon="-81.786925">
        <ele>0.999991</ele>
        <time>2023-12-10T08:15:35.000Z</time>
      </trkpt>
      <trkpt lat="24.547745" lon="-81.786998">
        <ele>0.999994</ele>
        <time>2023-12-10T08:15:36.000Z</time>
      </trkpt>
      <trkpt lat="24.547777" lon="-81.787036">
        <ele>1.000001</ele>
        <time>2023-12-10T08:15:37.000Z</time>
      </trkpt>
      <trkpt lat="24.547718" lon="-81.78728">
        <ele>1.000003</ele>
        <time>2023-12-10T08:15:40.000Z</time>
      </trkpt>
      <trkpt lat="24.5477" lon="-81.787348">
        <ele>0.999992</ele>
        <time>2023-12-10T08:15:41.000Z</time>
      </trkpt>
      <trkpt lat="24.547606" lon="-81.787361">
        <ele>1</ele>
        <time>2023-12-10T08:15:42.000Z</time>
      </trkpt>
      <trkpt lat="24.547603" lon="-81.787301">
        <ele>1.000001</ele>
        <time>2023-12-10T08:15:43.000Z</time>
      </trkpt>
      <trkpt lat="24.547551" lon="-81.786882">
        <ele>0.999994</ele>
        <time>2023-12-10T08:15:47.000Z</time>
      </trkpt>
      <trkpt lat="24.547508" lon="-81.786686">
        <ele>0.998671</ele>
        <time>2023-12-10T08:15:49.000Z</time>
      </trkpt>
      <trkpt lat="24.547497" lon="-81.78625">
        <ele>0.983233</ele>
        <time>2023-12-10T08:15:53.000Z</time>
      </trkpt>
      <trkpt lat="24.547541" lon="-81.785891">
        <ele>0.970418</ele>
        <time>2023-12-10T08:15:57.000Z</time>
      </trkpt>
      <trkpt lat="24.54779" lon="-81.785031">
        <ele>0.939665</ele>
        <time>2023-12-10T08:16:06.000Z</time>
      </trkpt>
      <trkpt lat="24.547838" lon="-81.78496">
        <ele>0.936277</ele>
        <time>2023-12-10T08:16:07.000Z</time>
      </trkpt>
      <trkpt lat="24.54788" lon="-81.78487">
        <ele>0.932636</ele>
        <time>2023-12-10T08:16:08.000Z</time>
      </trkpt>
      <trkpt lat="24.547976" lon="-81.784728">
        <ele>0.92181</ele>
        <time>2023-12-10T08:16:10.000Z</time>
      </trkpt>
      <trkpt lat="24.548643" lon="-81.783671">
        <ele>0.839509</ele>
        <time>2023-12-10T08:16:23.000Z</time>
      </trkpt>
      <trkpt lat="24.548764" lon="-81.783493">
        <ele>0.825435</ele>
        <time>2023-12-10T08:16:25.000Z</time>
      </trkpt>
      <trkpt lat="24.549155" lon="-81.782899">
        <ele>0.812056</ele>
        <time>2023-12-10T08:16:32.000Z</time>
      </trkpt>
      <trkpt lat="24.549627" lon="-81.782132">
        <ele>0.831184</ele>
        <time>2023-12-10T08:16:41.000Z</time>
      </trkpt>
      <trkpt lat="24.549796" lon="-81.781866">
        <ele>0.837895</ele>
        <time>2023-12-10T08:16:44.000Z</time>
      </trkpt>
      <trkpt lat="24.550368" lon="-81.780955">
        <ele>0.895957</ele>
        <time>2023-12-10T08:16:55.000Z</time>
      </trkpt>
      <trkpt lat="24.550447" lon="-81.78081">
        <ele>0.906483</ele>
        <time>2023-12-10T08:16:57.000Z</time>
      </trkpt>
      <trkpt lat="24.55057" lon="-81.780614">
        <ele>0.922492</ele>
        <time>2023-12-10T08:16:59.000Z</time>
      </trkpt>
      <trkpt lat="24.550994" lon="-81.779963">
        <ele>0.973941</ele>
        <time>2023-12-10T08:17:07.000Z</time>
      </trkpt>
      <trkpt lat="24.55161" lon="-81.778938">
        <ele>0.990143</ele>
        <time>2023-12-10T08:17:19.000Z</time>
      </trkpt>
      <trkpt lat="24.551647" lon="-81.778907">
        <ele>0.990767</ele>
        <time>2023-12-10T08:17:20.000Z</time>
      </trkpt>
      <trkpt lat="24.551978" lon="-81.778383">
        <ele>0.999284</ele>
        <time>2023-12-10T08:17:26.000Z</time>
      </trkpt>
      <trkpt lat="24.552255" lon="-81.777915">
        <ele>0.989171</ele>
        <time>2023-12-10T08:17:32.000Z</time>
      </trkpt>
      <trkpt lat="24.552332" lon="-81.777815">
        <ele>0.986812</ele>
        <time>2023-12-10T08:17:33.000Z</time>
      </trkpt>
      <trkpt lat="24.551878" lon="-81.777482">
        <ele>0.97396</ele>
        <time>2023-12-10T08:17:39.000Z</time>
      </trkpt>
      <trkpt lat="24.550511" lon="-81.776457">
        <ele>0.85504</ele>
        <time>2023-12-10T08:17:57.000Z</time>
      </trkpt>
      <trkpt lat="24.550449" lon="-81.776302">
        <ele>0.83847</ele>
        <time>2023-12-10T08:17:59.000Z</time>
      </trkpt>
      <trkpt lat="24.550453" lon="-81.776172">
        <ele>0.827219</ele>
        <time>2023-12-10T08:18:00.000Z</time>
      </trkpt>
      <trkpt lat="24.550889" lon="-81.774861">
        <ele>0.674205</ele>
        <time>2023-12-10T08:18:14.000Z</time>
      </trkpt>
      <trkpt lat="24.551168" lon="-81.773934">
        <ele>0.556509</ele>
        <time>2023-12-10T08:18:24.000Z</time>
      </trkpt>
      <trkpt lat="24.551449" lon="-81.772685">
        <ele>0.438828</ele>
        <time>2023-12-10T08:18:37.000Z</time>
      </trkpt>
      <trkpt lat="24.551561" lon="-81.772271">
        <ele>0.402497</ele>
        <time>2023-12-10T08:18:41.000Z</time>
      </trkpt>
      <trkpt lat="24.551732" lon="-81.771498">
        <ele>0.351152</ele>
        <time>2023-12-10T08:18:49.000Z</time>
      </trkpt>
      <trkpt lat="24.55208" lon="-81.770036">
        <ele>0.304249</ele>
        <time>2023-12-10T08:19:04.000Z</time>
      </trkpt>
      <trkpt lat="24.552107" lon="-81.769907">
        <ele>0.300188</ele>
        <time>2023-12-10T08:19:05.000Z</time>
      </trkpt>
      <trkpt lat="24.552258" lon="-81.769109">
        <ele>0.296176</ele>
        <time>2023-12-10T08:19:13.000Z</time>
      </trkpt>
      <trkpt lat="24.552509" lon="-81.767482">
        <ele>0.248751</ele>
        <time>2023-12-10T08:19:30.000Z</time>
      </trkpt>
      <trkpt lat="24.552647" lon="-81.76611">
        <ele>0.129291</ele>
        <time>2023-12-10T08:19:44.000Z</time>
      </trkpt>
      <trkpt lat="24.552631" lon="-81.765414">
        <ele>0.091519</ele>
        <time>2023-12-10T08:19:51.000Z</time>
      </trkpt>
      <trkpt lat="24.552612" lon="-81.764899">
        <ele>0.066302</ele>
        <time>2023-12-10T08:19:56.000Z</time>
      </trkpt>
      <trkpt lat="24.552598" lon="-81.764589">
        <ele>0.051087</ele>
        <time>2023-12-10T08:19:59.000Z</time>
      </trkpt>
      <trkpt lat="24.552414" lon="-81.758929">
        <ele>0.155787</ele>
        <time>2023-12-10T08:20:56.000Z</time>
      </trkpt>
      <trkpt lat="24.552206" lon="-81.757147">
        <ele>0.109017</ele>
        <time>2023-12-10T08:21:14.000Z</time>
      </trkpt>
      <trkpt lat="24.552132" lon="-81.756732">
        <ele>0.090058</ele>
        <time>2023-12-10T08:21:18.000Z</time>
      </trkpt>
      <trkpt lat="24.552064" lon="-81.75627">
        <ele>0.068323</ele>
        <time>2023-12-10T08:21:23.000Z</time>
      </trkpt>
      <trkpt lat="24.551954" lon="-81.755524">
        <ele>0.067725</ele>
        <time>2023-12-10T08:21:31.000Z</time>
      </trkpt>
      <trkpt lat="24.551885" lon="-81.754947">
        <ele>0.07269</ele>
        <time>2023-12-10T08:21:37.000Z</time>
      </trkpt>
      <trkpt lat="24.551915" lon="-81.754555">
        <ele>0.076121</ele>
        <time>2023-12-10T08:21:41.000Z</time>
      </trkpt>
      <trkpt lat="24.552187" lon="-81.753522">
        <ele>0.086691</ele>
        <time>2023-12-10T08:21:52.000Z</time>
      </trkpt>
      <trkpt lat="24.552246" lon="-81.753371">
        <ele>0.08836</ele>
        <time>2023-12-10T08:21:54.000Z</time>
      </trkpt>
      <trkpt lat="24.55228" lon="-81.753256">
        <ele>0.089574</ele>
        <time>2023-12-10T08:21:55.000Z</time>
      </trkpt>
      <trkpt lat="24.552305" lon="-81.753186">
        <ele>0.090423</ele>
        <time>2023-12-10T08:21:56.000Z</time>
      </trkpt>
      <trkpt lat="24.552354" lon="-81.753015">
        <ele>0.09234</ele>
        <time>2023-12-10T08:21:58.000Z</time>
      </trkpt>
      <trkpt lat="24.552718" lon="-81.75195">
        <ele>0.110139</ele>
        <time>2023-12-10T08:22:10.000Z</time>
      </trkpt>
      <trkpt lat="24.553133" lon="-81.751033">
        <ele>0.136164</ele>
        <time>2023-12-10T08:22:20.000Z</time>
      </trkpt>
      <trkpt lat="24.553688" lon="-81.750119">
        <ele>0.163886</ele>
        <time>2023-12-10T08:22:31.000Z</time>
      </trkpt>
      <trkpt lat="24.554228" lon="-81.749419">
        <ele>0.186857</ele>
        <time>2023-12-10T08:22:40.000Z</time>
      </trkpt>
      <trkpt lat="24.554629" lon="-81.749027">
        <ele>0.201111</ele>
        <time>2023-12-10T08:22:46.000Z</time>
      </trkpt>
      <trkpt lat="24.554867" lon="-81.7488">
        <ele>0.207529</ele>
        <time>2023-12-10T08:22:50.000Z</time>
      </trkpt>
      <trkpt lat="24.555192" lon="-81.748483">
        <ele>0.215966</ele>
        <time>2023-12-10T08:22:55.000Z</time>
      </trkpt>
      <trkpt lat="24.555623" lon="-81.748241">
        <ele>0.225383</ele>
        <time>2023-12-10T08:23:00.000Z</time>
      </trkpt>
      <trkpt lat="24.556007" lon="-81.748149">
        <ele>0.233221</ele>
        <time>2023-12-10T08:23:04.000Z</time>
      </trkpt>
      <trkpt lat="24.556781" lon="-81.748241">
        <ele>0.287953</ele>
        <time>2023-12-10T08:23:13.000Z</time>
      </trkpt>
      <trkpt lat="24.559704" lon="-81.748704">
        <ele>0.501721</ele>
        <time>2023-12-10T08:23:46.000Z</time>
      </trkpt>
      <trkpt lat="24.560977" lon="-81.74907">
        <ele>0.605785</ele>
        <time>2023-12-10T08:24:01.000Z</time>
      </trkpt>
      <trkpt lat="24.562045" lon="-81.749497">
        <ele>0.713137</ele>
        <time>2023-12-10T08:24:14.000Z</time>
      </trkpt>
      <trkpt lat="24.563638" lon="-81.750122">
        <ele>0.882506</ele>
        <time>2023-12-10T08:24:33.000Z</time>
      </trkpt>
      <trkpt lat="24.564487" lon="-81.750431">
        <ele>0.960509</ele>
        <time>2023-12-10T08:24:43.000Z</time>
      </trkpt>
      <trkpt lat="24.565015" lon="-81.750626">
        <ele>0.99128</ele>
        <time>2023-12-10T08:24:49.000Z</time>
      </trkpt>
      <trkpt lat="24.565284" lon="-81.750745">
        <ele>0.992825</ele>
        <time>2023-12-10T08:24:52.000Z</time>
      </trkpt>
      <trkpt lat="24.565873" lon="-81.750978">
        <ele>0.996306</ele>
        <time>2023-12-10T08:24:59.000Z</time>
      </trkpt>
      <trkpt lat="24.565277" lon="-81.750746">
        <ele>0.999785</ele>
        <time>2023-12-10T08:25:06.000Z</time>
      </trkpt>
      <trkpt lat="24.565005" lon="-81.750631">
        <ele>0.982966</ele>
        <time>2023-12-10T08:25:09.000Z</time>
      </trkpt>
      <trkpt lat="24.564476" lon="-81.75043">
        <ele>0.948922</ele>
        <time>2023-12-10T08:25:15.000Z</time>
      </trkpt>
      <trkpt lat="24.56364" lon="-81.750114">
        <ele>0.894394</ele>
        <time>2023-12-10T08:25:25.000Z</time>
      </trkpt>
      <trkpt lat="24.562052" lon="-81.749498">
        <ele>0.708577</ele>
        <time>2023-12-10T08:25:44.000Z</time>
      </trkpt>
      <trkpt lat="24.560993" lon="-81.749066">
        <ele>0.608153</ele>
        <time>2023-12-10T08:25:57.000Z</time>
      </trkpt>
      <trkpt lat="24.559689" lon="-81.748704">
        <ele>0.502802</ele>
        <time>2023-12-10T08:26:12.000Z</time>
      </trkpt>
      <trkpt lat="24.556787" lon="-81.748228">
        <ele>0.285186</ele>
        <time>2023-12-10T08:26:45.000Z</time>
      </trkpt>
      <trkpt lat="24.556022" lon="-81.748155">
        <ele>0.247778</ele>
        <time>2023-12-10T08:26:54.000Z</time>
      </trkpt>
      <trkpt lat="24.555612" lon="-81.748243">
        <ele>0.231869</ele>
        <time>2023-12-10T08:26:59.000Z</time>
      </trkpt>
      <trkpt lat="24.555197" lon="-81.748489">
        <ele>0.212788</ele>
        <time>2023-12-10T08:27:04.000Z</time>
      </trkpt>
      <trkpt lat="24.554869" lon="-81.748803">
        <ele>0.198619</ele>
        <time>2023-12-10T08:27:09.000Z</time>
      </trkpt>
      <trkpt lat="24.554625" lon="-81.749033">
        <ele>0.194488</ele>
        <time>2023-12-10T08:27:13.000Z</time>
      </trkpt>
      <trkpt lat="24.554234" lon="-81.749427">
        <ele>0.187769</ele>
        <time>2023-12-10T08:27:19.000Z</time>
      </trkpt>
      <trkpt lat="24.553694" lon="-81.750107">
        <ele>0.177301</ele>
        <time>2023-12-10T08:27:28.000Z</time>
      </trkpt>
      <trkpt lat="24.553137" lon="-81.751029">
        <ele>0.134726</ele>
        <time>2023-12-10T08:27:39.000Z</time>
      </trkpt>
      <trkpt lat="24.552707" lon="-81.751937">
        <ele>0.100233</ele>
        <time>2023-12-10T08:27:49.000Z</time>
      </trkpt>
      <trkpt lat="24.552359" lon="-81.753002">
        <ele>0.100095</ele>
        <time>2023-12-10T08:28:00.000Z</time>
      </trkpt>
      <trkpt lat="24.552292" lon="-81.753176">
        <ele>0.100063</ele>
        <time>2023-12-10T08:28:02.000Z</time>
      </trkpt>
      <trkpt lat="24.552268" lon="-81.753263">
        <ele>0.100057</ele>
        <time>2023-12-10T08:28:03.000Z</time>
      </trkpt>
      <trkpt lat="24.552234" lon="-81.753361">
        <ele>0.100031</ele>
        <time>2023-12-10T08:28:04.000Z</time>
      </trkpt>
      <trkpt lat="24.552185" lon="-81.753515">
        <ele>0.100015</ele>
        <time>2023-12-10T08:28:06.000Z</time>
      </trkpt>
      <trkpt lat="24.551955" lon="-81.75442">
        <ele>0.086722</ele>
        <time>2023-12-10T08:28:16.000Z</time>
      </trkpt>
      <trkpt lat="24.551916" lon="-81.754547">
        <ele>0.084355</ele>
        <time>2023-12-10T08:28:17.000Z</time>
      </trkpt>
      <trkpt lat="24.551903" lon="-81.754641">
        <ele>0.082909</ele>
        <time>2023-12-10T08:28:18.000Z</time>
      </trkpt>
      <trkpt lat="24.551887" lon="-81.754955">
        <ele>0.077581</ele>
        <time>2023-12-10T08:28:21.000Z</time>
      </trkpt>
      <trkpt lat="24.551953" lon="-81.75552">
        <ele>0.067806</ele>
        <time>2023-12-10T08:28:27.000Z</time>
      </trkpt>
      <trkpt lat="24.552063" lon="-81.756271">
        <ele>0.087234</ele>
        <time>2023-12-10T08:28:35.000Z</time>
      </trkpt>
      <trkpt lat="24.552128" lon="-81.756728">
        <ele>0.101976</ele>
        <time>2023-12-10T08:28:40.000Z</time>
      </trkpt>
      <trkpt lat="24.552203" lon="-81.757144">
        <ele>0.114833</ele>
        <time>2023-12-10T08:28:44.000Z</time>
      </trkpt>
      <trkpt lat="24.552405" lon="-81.758935">
        <ele>0.161175</ele>
        <time>2023-12-10T08:29:02.000Z</time>
      </trkpt>
      <trkpt lat="24.552605" lon="-81.764599">
        <ele>0.056258</ele>
        <time>2023-12-10T08:29:59.000Z</time>
      </trkpt>
      <trkpt lat="24.55262" lon="-81.764908">
        <ele>0.060844</ele>
        <time>2023-12-10T08:30:02.000Z</time>
      </trkpt>
      <trkpt lat="24.552629" lon="-81.765413">
        <ele>0.068434</ele>
        <time>2023-12-10T08:30:07.000Z</time>
      </trkpt>
      <trkpt lat="24.552646" lon="-81.766099">
        <ele>0.1319</ele>
        <time>2023-12-10T08:30:14.000Z</time>
      </trkpt>
      <trkpt lat="24.552504" lon="-81.767477">
        <ele>0.261197</ele>
        <time>2023-12-10T08:30:28.000Z</time>
      </trkpt>
      <trkpt lat="24.552256" lon="-81.769108">
        <ele>0.294441</ele>
        <time>2023-12-10T08:30:45.000Z</time>
      </trkpt>
      <trkpt lat="24.552106" lon="-81.769899">
        <ele>0.305294</ele>
        <time>2023-12-10T08:30:53.000Z</time>
      </trkpt>
      <trkpt lat="24.552073" lon="-81.770032">
        <ele>0.306549</ele>
        <time>2023-12-10T08:30:54.000Z</time>
      </trkpt>
      <trkpt lat="24.551748" lon="-81.77149">
        <ele>0.336886</ele>
        <time>2023-12-10T08:31:09.000Z</time>
      </trkpt>
      <trkpt lat="24.551548" lon="-81.772285">
        <ele>0.407431</ele>
        <time>2023-12-10T08:31:17.000Z</time>
      </trkpt>
      <trkpt lat="24.55146" lon="-81.772687">
        <ele>0.444177</ele>
        <time>2023-12-10T08:31:21.000Z</time>
      </trkpt>
      <trkpt lat="24.551169" lon="-81.773941">
        <ele>0.569899</ele>
        <time>2023-12-10T08:31:34.000Z</time>
      </trkpt>
      <trkpt lat="24.550881" lon="-81.774868">
        <ele>0.673195</ele>
        <time>2023-12-10T08:31:44.000Z</time>
      </trkpt>
      <trkpt lat="24.550457" lon="-81.776183">
        <ele>0.828155</ele>
        <time>2023-12-10T08:31:58.000Z</time>
      </trkpt>
      <trkpt lat="24.550443" lon="-81.776295">
        <ele>0.841282</ele>
        <time>2023-12-10T08:31:59.000Z</time>
      </trkpt>
      <trkpt lat="24.550515" lon="-81.776463">
        <ele>0.860606</ele>
        <time>2023-12-10T08:32:01.000Z</time>
      </trkpt>
      <trkpt lat="24.551878" lon="-81.777491">
        <ele>0.971315</ele>
        <time>2023-12-10T08:32:19.000Z</time>
      </trkpt>
      <trkpt lat="24.552338" lon="-81.777819">
        <ele>0.995475</ele>
        <time>2023-12-10T08:32:25.000Z</time>
      </trkpt>
      <trkpt lat="24.552271" lon="-81.77791">
        <ele>0.99871</ele>
        <time>2023-12-10T08:32:26.000Z</time>
      </trkpt>
      <trkpt lat="24.551968" lon="-81.778378">
        <ele>0.997152</ele>
        <time>2023-12-10T08:32:32.000Z</time>
      </trkpt>
      <trkpt lat="24.551636" lon="-81.778899">
        <ele>0.995393</ele>
        <time>2023-12-10T08:32:38.000Z</time>
      </trkpt>
      <trkpt lat="24.551609" lon="-81.778949">
        <ele>0.995271</ele>
        <time>2023-12-10T08:32:39.000Z</time>
      </trkpt>
      <trkpt lat="24.550987" lon="-81.779946">
        <ele>0.962971</ele>
        <time>2023-12-10T08:32:51.000Z</time>
      </trkpt>
      <trkpt lat="24.550573" lon="-81.780606">
        <ele>0.917318</ele>
        <time>2023-12-10T08:32:59.000Z</time>
      </trkpt>
      <trkpt lat="24.550451" lon="-81.780813">
        <ele>0.903238</ele>
        <time>2023-12-10T08:33:01.000Z</time>
      </trkpt>
      <trkpt lat="24.550367" lon="-81.780939">
        <ele>0.894005</ele>
        <time>2023-12-10T08:33:03.000Z</time>
      </trkpt>
      <trkpt lat="24.549791" lon="-81.781882">
        <ele>0.84439</ele>
        <time>2023-12-10T08:33:14.000Z</time>
      </trkpt>
      <trkpt lat="24.549613" lon="-81.782149">
        <ele>0.831353</ele>
        <time>2023-12-10T08:33:17.000Z</time>
      </trkpt>
      <trkpt lat="24.549161" lon="-81.782892">
        <ele>0.805787</ele>
        <time>2023-12-10T08:33:26.000Z</time>
      </trkpt>
      <trkpt lat="24.548759" lon="-81.7835">
        <ele>0.835604</ele>
        <time>2023-12-10T08:33:34.000Z</time>
      </trkpt>
      <trkpt lat="24.548646" lon="-81.783679">
        <ele>0.844467</ele>
        <time>2023-12-10T08:33:36.000Z</time>
      </trkpt>
      <trkpt lat="24.547985" lon="-81.784727">
        <ele>0.904143</ele>
        <time>2023-12-10T08:33:49.000Z</time>
      </trkpt>
      <trkpt lat="24.547896" lon="-81.784873">
        <ele>0.915456</ele>
        <time>2023-12-10T08:33:51.000Z</time>
      </trkpt>
      <trkpt lat="24.547824" lon="-81.784963">
        <ele>0.921809</ele>
        <time>2023-12-10T08:33:52.000Z</time>
      </trkpt>
      <trkpt lat="24.547776" lon="-81.785031">
        <ele>0.927707</ele>
        <time>2023-12-10T08:33:53.000Z</time>
      </trkpt>
      <trkpt lat="24.547542" lon="-81.785882">
        <ele>0.981274</ele>
        <time>2023-12-10T08:34:02.000Z</time>
      </trkpt>
      <trkpt lat="24.547503" lon="-81.786248">
        <ele>1.00252760019</ele>
        <time>2023-12-10T08:34:06.000Z</time>
      </trkpt>
      <trkpt lat="24.547516" lon="-81.786699">
        <ele>1.02855233425</ele>
        <time>2023-12-10T08:34:11.000Z</time>
      </trkpt>
      <trkpt lat="24.547549" lon="-81.786885">
        <ele>1.03948214226</ele>
        <time>2023-12-10T08:34:13.000Z</time>
      </trkpt>
      <trkpt lat="24.547607" lon="-81.787311">
        <ele>1.06432561948</ele>
        <time>2023-12-10T08:34:17.000Z</time>
      </trkpt>
      <trkpt lat="24.547604" lon="-81.787369">
        <ele>1.06767620324</ele>
        <time>2023-12-10T08:34:18.000Z</time>
      </trkpt>
      <trkpt lat="24.547646" lon="-81.787623">
        <ele>1.082565867</ele>
        <time>2023-12-10T08:34:21.000Z</time>
      </trkpt>
    </trkseg>
  </trk>
</gpx>

<!--
Performance optimized by W3 Total Cache. Learn more: https://www.boldgrid.com/w3-total-cache/?utm_source=w3tc&utm_medium=footer_comment&utm_campaign=free_plugin

Page Caching using Disk: Enhanced{w3tc_pagecache_reject_reason} 

Served from: www.aquabike.world @ 2026-05-10 20:04:30 by W3 Total Cache
-->